sensor_id;sensor_type;location;lat;lon;timestamp;P1;durP1;ratioP1;P2;durP2;ratioP2
7753;SDS011;3921;42.266;23.122;2023-04-15T00:00:22;9.10;;;6.80;;
7753;SDS011;3921;42.266;23.122;2023-04-15T00:02:50;9.53;;;6.03;;
7753;SDS011;3921;42.266;23.122;2023-04-15T00:05:17;12.13;;;6.93;;
7753;SDS011;3921;42.266;23.122;2023-04-15T00:07:44;9.87;;;6.27;;
7753;SDS011;3921;42.266;23.122;2023-04-15T00:10:12;10.70;;;6.33;;
7753;SDS011;3921;42.266;23.122;2023-04-15T00:12:40;8.83;;;6.10;;
7753;SDS011;3921;42.266;23.122;2023-04-15T00:15:08;7.90;;;6.47;;
7753;SDS011;3921;42.266;23.122;2023-04-15T00:17:36;10.57;;;7.03;;
7753;SDS011;3921;42.266;23.122;2023-04-15T00:20:04;14.23;;;7.37;;
7753;SDS011;3921;42.266;23.122;2023-04-15T00:22:32;11.17;;;7.70;;
7753;SDS011;3921;42.266;23.122;2023-04-15T00:24:59;10.70;;;7.60;;
7753;SDS011;3921;42.266;23.122;2023-04-15T00:27:26;13.10;;;8.27;;
7753;SDS011;3921;42.266;23.122;2023-04-15T00:29:55;11.27;;;7.03;;
7753;SDS011;3921;42.266;23.122;2023-04-15T00:32:22;11.17;;;7.57;;
7753;SDS011;3921;42.266;23.122;2023-04-15T00:34:52;13.53;;;8.63;;
7753;SDS011;3921;42.266;23.122;2023-04-15T00:37:25;13.33;;;8.50;;
7753;SDS011;3921;42.266;23.122;2023-04-15T00:39:52;12.50;;;7.63;;
7753;SDS011;3921;42.266;23.122;2023-04-15T00:42:22;12.07;;;6.90;;
7753;SDS011;3921;42.266;23.122;2023-04-15T00:44:51;9.07;;;6.23;;
7753;SDS011;3921;42.266;23.122;2023-04-15T00:47:19;10.77;;;6.90;;
7753;SDS011;3921;42.266;23.122;2023-04-15T00:49:48;10.43;;;6.20;;
7753;SDS011;3921;42.266;23.122;2023-04-15T00:52:16;9.07;;;5.97;;
7753;SDS011;3921;42.266;23.122;2023-04-15T00:54:43;12.40;;;6.80;;
7753;SDS011;3921;42.266;23.122;2023-04-15T00:57:10;9.70;;;6.50;;
7753;SDS011;3921;42.266;23.122;2023-04-15T00:59:38;8.90;;;5.53;;
7753;SDS011;3921;42.266;23.122;2023-04-15T01:02:05;7.00;;;5.10;;
7753;SDS011;3921;42.266;23.122;2023-04-15T01:04:34;9.70;;;6.10;;
7753;SDS011;3921;42.266;23.122;2023-04-15T01:07:02;10.43;;;5.87;;
7753;SDS011;3921;42.266;23.122;2023-04-15T01:09:29;8.63;;;5.77;;
7753;SDS011;3921;42.266;23.122;2023-04-15T01:11:57;7.90;;;5.53;;
7753;SDS011;3921;42.266;23.122;2023-04-15T01:14:24;10.80;;;6.00;;
7753;SDS011;3921;42.266;23.122;2023-04-15T01:16:52;7.23;;;5.30;;
7753;SDS011;3921;42.266;23.122;2023-04-15T01:19:19;9.10;;;5.80;;
7753;SDS011;3921;42.266;23.122;2023-04-15T01:21:47;7.53;;;4.90;;
7753;SDS011;3921;42.266;23.122;2023-04-15T01:24:15;7.40;;;5.37;;
7753;SDS011;3921;42.266;23.122;2023-04-15T01:26:45;9.73;;;5.40;;
7753;SDS011;3921;42.266;23.122;2023-04-15T01:29:14;8.93;;;5.53;;
7753;SDS011;3921;42.266;23.122;2023-04-15T01:31:47;7.73;;;5.40;;
7753;SDS011;3921;42.266;23.122;2023-04-15T01:34:16;8.40;;;5.50;;
7753;SDS011;3921;42.266;23.122;2023-04-15T01:36:43;7.40;;;5.13;;
7753;SDS011;3921;42.266;23.122;2023-04-15T01:39:11;8.07;;;5.90;;
7753;SDS011;3921;42.266;23.122;2023-04-15T01:41:38;7.93;;;5.30;;
7753;SDS011;3921;42.266;23.122;2023-04-15T01:44:08;6.63;;;4.70;;
7753;SDS011;3921;42.266;23.122;2023-04-15T01:46:35;8.43;;;5.40;;
7753;SDS011;3921;42.266;23.122;2023-04-15T01:49:03;6.60;;;4.83;;
7753;SDS011;3921;42.266;23.122;2023-04-15T01:51:30;5.87;;;4.80;;
7753;SDS011;3921;42.266;23.122;2023-04-15T01:53:57;7.27;;;5.00;;
7753;SDS011;3921;42.266;23.122;2023-04-15T01:56:25;8.07;;;4.60;;
7753;SDS011;3921;42.266;23.122;2023-04-15T01:58:52;6.77;;;4.93;;
7753;SDS011;3921;42.266;23.122;2023-04-15T02:03:55;6.27;;;4.70;;
7753;SDS011;3921;42.266;23.122;2023-04-15T02:06:23;6.53;;;4.80;;
7753;SDS011;3921;42.266;23.122;2023-04-15T02:08:56;5.17;;;4.50;;
7753;SDS011;3921;42.266;23.122;2023-04-15T02:11:24;7.10;;;4.93;;
7753;SDS011;3921;42.266;23.122;2023-04-15T02:13:51;7.00;;;4.97;;
7753;SDS011;3921;42.266;23.122;2023-04-15T02:16:19;8.00;;;5.23;;
7753;SDS011;3921;42.266;23.122;2023-04-15T02:18:50;8.60;;;5.43;;
7753;SDS011;3921;42.266;23.122;2023-04-15T02:21:19;6.63;;;5.20;;
7753;SDS011;3921;42.266;23.122;2023-04-15T02:23:47;6.73;;;5.00;;
7753;SDS011;3921;42.266;23.122;2023-04-15T02:26:15;10.00;;;6.23;;
7753;SDS011;3921;42.266;23.122;2023-04-15T02:28:43;8.00;;;5.20;;
7753;SDS011;3921;42.266;23.122;2023-04-15T02:31:10;8.37;;;5.93;;
7753;SDS011;3921;42.266;23.122;2023-04-15T02:33:37;7.63;;;5.33;;
7753;SDS011;3921;42.266;23.122;2023-04-15T02:36:05;7.37;;;5.53;;
7753;SDS011;3921;42.266;23.122;2023-04-15T02:38:35;6.63;;;5.73;;
7753;SDS011;3921;42.266;23.122;2023-04-15T02:41:04;12.43;;;6.40;;
7753;SDS011;3921;42.266;23.122;2023-04-15T02:43:31;11.07;;;7.90;;
7753;SDS011;3921;42.266;23.122;2023-04-15T02:45:59;12.13;;;7.53;;
7753;SDS011;3921;42.266;23.122;2023-04-15T02:48:26;10.90;;;7.23;;
7753;SDS011;3921;42.266;23.122;2023-04-15T02:50:55;9.97;;;6.93;;
7753;SDS011;3921;42.266;23.122;2023-04-15T02:53:38;8.67;;;6.03;;
7753;SDS011;3921;42.266;23.122;2023-04-15T02:56:06;9.97;;;6.87;;
7753;SDS011;3921;42.266;23.122;2023-04-15T02:58:36;9.70;;;7.20;;
7753;SDS011;3921;42.266;23.122;2023-04-15T03:01:05;11.73;;;8.47;;
7753;SDS011;3921;42.266;23.122;2023-04-15T03:03:33;20.03;;;10.63;;
7753;SDS011;3921;42.266;23.122;2023-04-15T03:06:00;21.20;;;11.10;;
7753;SDS011;3921;42.266;23.122;2023-04-15T03:08:28;17.80;;;9.90;;
7753;SDS011;3921;42.266;23.122;2023-04-15T03:10:59;19.10;;;10.20;;
7753;SDS011;3921;42.266;23.122;2023-04-15T03:13:27;13.33;;;8.40;;
7753;SDS011;3921;42.266;23.122;2023-04-15T03:15:54;15.37;;;8.60;;
7753;SDS011;3921;42.266;23.122;2023-04-15T03:18:22;10.50;;;7.10;;
7753;SDS011;3921;42.266;23.122;2023-04-15T03:20:49;16.10;;;8.23;;
7753;SDS011;3921;42.266;23.122;2023-04-15T03:23:16;12.80;;;7.60;;
7753;SDS011;3921;42.266;23.122;2023-04-15T03:25:45;10.70;;;7.00;;
7753;SDS011;3921;42.266;23.122;2023-04-15T03:28:16;9.53;;;6.83;;
7753;SDS011;3921;42.266;23.122;2023-04-15T03:30:43;8.53;;;6.10;;
7753;SDS011;3921;42.266;23.122;2023-04-15T03:33:10;9.00;;;6.50;;
7753;SDS011;3921;42.266;23.122;2023-04-15T03:35:38;10.50;;;5.70;;
7753;SDS011;3921;42.266;23.122;2023-04-15T03:38:05;8.67;;;6.23;;
7753;SDS011;3921;42.266;23.122;2023-04-15T03:40:33;7.80;;;5.23;;
7753;SDS011;3921;42.266;23.122;2023-04-15T03:43:00;9.23;;;5.60;;
7753;SDS011;3921;42.266;23.122;2023-04-15T03:45:29;7.23;;;5.73;;
7753;SDS011;3921;42.266;23.122;2023-04-15T03:48:02;7.90;;;5.20;;
7753;SDS011;3921;42.266;23.122;2023-04-15T03:50:39;7.63;;;5.50;;
7753;SDS011;3921;42.266;23.122;2023-04-15T03:53:10;7.83;;;5.47;;
7753;SDS011;3921;42.266;23.122;2023-04-15T03:55:37;12.73;;;9.20;;
7753;SDS011;3921;42.266;23.122;2023-04-15T03:58:04;12.13;;;8.40;;
7753;SDS011;3921;42.266;23.122;2023-04-15T04:00:33;8.80;;;6.40;;
7753;SDS011;3921;42.266;23.122;2023-04-15T04:03:00;9.20;;;6.30;;
7753;SDS011;3921;42.266;23.122;2023-04-15T04:05:27;10.07;;;6.47;;
7753;SDS011;3921;42.266;23.122;2023-04-15T04:07:55;10.63;;;6.70;;
7753;SDS011;3921;42.266;23.122;2023-04-15T04:10:22;10.60;;;6.93;;
7753;SDS011;3921;42.266;23.122;2023-04-15T04:12:49;13.40;;;6.73;;
7753;SDS011;3921;42.266;23.122;2023-04-15T04:15:16;9.83;;;6.27;;
7753;SDS011;3921;42.266;23.122;2023-04-15T04:17:44;11.63;;;7.33;;
7753;SDS011;3921;42.266;23.122;2023-04-15T04:20:11;9.93;;;6.60;;
7753;SDS011;3921;42.266;23.122;2023-04-15T04:22:38;10.37;;;6.57;;
7753;SDS011;3921;42.266;23.122;2023-04-15T04:25:06;14.00;;;7.40;;
7753;SDS011;3921;42.266;23.122;2023-04-15T04:27:34;12.93;;;7.17;;
7753;SDS011;3921;42.266;23.122;2023-04-15T04:30:01;13.77;;;7.63;;
7753;SDS011;3921;42.266;23.122;2023-04-15T04:32:28;14.30;;;8.77;;
7753;SDS011;3921;42.266;23.122;2023-04-15T04:34:57;26.33;;;13.23;;
7753;SDS011;3921;42.266;23.122;2023-04-15T04:37:24;29.80;;;16.13;;
7753;SDS011;3921;42.266;23.122;2023-04-15T04:39:51;25.47;;;14.37;;
7753;SDS011;3921;42.266;23.122;2023-04-15T04:42:18;19.10;;;12.87;;
7753;SDS011;3921;42.266;23.122;2023-04-15T04:44:45;23.43;;;14.30;;
7753;SDS011;3921;42.266;23.122;2023-04-15T04:47:12;34.20;;;19.73;;
7753;SDS011;3921;42.266;23.122;2023-04-15T04:49:39;34.70;;;19.53;;
7753;SDS011;3921;42.266;23.122;2023-04-15T04:52:08;37.17;;;18.80;;
7753;SDS011;3921;42.266;23.122;2023-04-15T04:54:37;35.00;;;18.57;;
7753;SDS011;3921;42.266;23.122;2023-04-15T04:57:04;26.30;;;16.70;;
7753;SDS011;3921;42.266;23.122;2023-04-15T04:59:32;15.30;;;10.77;;
7753;SDS011;3921;42.266;23.122;2023-04-15T05:01:59;12.03;;;8.87;;
7753;SDS011;3921;42.266;23.122;2023-04-15T05:04:27;16.50;;;10.57;;
7753;SDS011;3921;42.266;23.122;2023-04-15T05:06:56;15.50;;;9.97;;
7753;SDS011;3921;42.266;23.122;2023-04-15T05:09:25;23.00;;;13.40;;
7753;SDS011;3921;42.266;23.122;2023-04-15T05:11:52;23.97;;;14.83;;
7753;SDS011;3921;42.266;23.122;2023-04-15T05:14:20;16.77;;;11.40;;
7753;SDS011;3921;42.266;23.122;2023-04-15T05:16:47;16.07;;;10.30;;
7753;SDS011;3921;42.266;23.122;2023-04-15T05:19:14;17.93;;;11.23;;
7753;SDS011;3921;42.266;23.122;2023-04-15T05:21:41;18.90;;;12.43;;
7753;SDS011;3921;42.266;23.122;2023-04-15T05:24:08;21.17;;;12.80;;
7753;SDS011;3921;42.266;23.122;2023-04-15T05:26:37;18.47;;;12.77;;
7753;SDS011;3921;42.266;23.122;2023-04-15T05:29:04;23.77;;;13.93;;
7753;SDS011;3921;42.266;23.122;2023-04-15T05:31:31;24.30;;;13.93;;
7753;SDS011;3921;42.266;23.122;2023-04-15T05:33:58;21.30;;;12.43;;
7753;SDS011;3921;42.266;23.122;2023-04-15T05:36:25;21.23;;;12.23;;
7753;SDS011;3921;42.266;23.122;2023-04-15T05:38:53;20.23;;;13.37;;
7753;SDS011;3921;42.266;23.122;2023-04-15T05:41:20;27.87;;;15.73;;
7753;SDS011;3921;42.266;23.122;2023-04-15T05:43:49;68.57;;;31.73;;
7753;SDS011;3921;42.266;23.122;2023-04-15T05:46:16;49.00;;;23.97;;
7753;SDS011;3921;42.266;23.122;2023-04-15T05:48:43;63.40;;;27.67;;
7753;SDS011;3921;42.266;23.122;2023-04-15T05:51:10;37.37;;;20.03;;
7753;SDS011;3921;42.266;23.122;2023-04-15T05:53:37;33.60;;;20.23;;
7753;SDS011;3921;42.266;23.122;2023-04-15T05:56:05;28.67;;;17.83;;
7753;SDS011;3921;42.266;23.122;2023-04-15T05:58:33;26.03;;;15.73;;
7753;SDS011;3921;42.266;23.122;2023-04-15T06:01:02;21.40;;;12.77;;
7753;SDS011;3921;42.266;23.122;2023-04-15T06:03:30;17.93;;;12.73;;
7753;SDS011;3921;42.266;23.122;2023-04-15T06:06:01;16.50;;;11.90;;
7753;SDS011;3921;42.266;23.122;2023-04-15T06:08:29;17.43;;;12.40;;
7753;SDS011;3921;42.266;23.122;2023-04-15T06:10:57;20.47;;;12.77;;
7753;SDS011;3921;42.266;23.122;2023-04-15T06:13:30;18.67;;;11.97;;
7753;SDS011;3921;42.266;23.122;2023-04-15T06:16:00;20.43;;;12.33;;
7753;SDS011;3921;42.266;23.122;2023-04-15T06:18:29;16.87;;;10.97;;
7753;SDS011;3921;42.266;23.122;2023-04-15T06:20:57;15.93;;;10.37;;
7753;SDS011;3921;42.266;23.122;2023-04-15T06:23:24;13.73;;;9.93;;
7753;SDS011;3921;42.266;23.122;2023-04-15T06:25:51;14.20;;;9.73;;
7753;SDS011;3921;42.266;23.122;2023-04-15T06:28:18;18.50;;;10.23;;
7753;SDS011;3921;42.266;23.122;2023-04-15T06:30:45;14.03;;;9.60;;
7753;SDS011;3921;42.266;23.122;2023-04-15T06:33:13;13.80;;;9.83;;
7753;SDS011;3921;42.266;23.122;2023-04-15T06:35:41;11.50;;;7.90;;
7753;SDS011;3921;42.266;23.122;2023-04-15T06:38:08;9.70;;;6.10;;
7753;SDS011;3921;42.266;23.122;2023-04-15T06:40:36;8.47;;;6.07;;
7753;SDS011;3921;42.266;23.122;2023-04-15T06:43:03;8.53;;;5.30;;
7753;SDS011;3921;42.266;23.122;2023-04-15T06:45:30;6.57;;;4.97;;
7753;SDS011;3921;42.266;23.122;2023-04-15T06:47:57;8.83;;;4.50;;
7753;SDS011;3921;42.266;23.122;2023-04-15T06:50:25;6.13;;;4.57;;
7753;SDS011;3921;42.266;23.122;2023-04-15T06:52:54;7.70;;;4.73;;
7753;SDS011;3921;42.266;23.122;2023-04-15T06:55:21;8.80;;;4.87;;
7753;SDS011;3921;42.266;23.122;2023-04-15T06:57:48;7.93;;;4.93;;
7753;SDS011;3921;42.266;23.122;2023-04-15T07:00:16;5.73;;;4.07;;
7753;SDS011;3921;42.266;23.122;2023-04-15T07:02:44;5.00;;;3.87;;
7753;SDS011;3921;42.266;23.122;2023-04-15T07:05:12;5.10;;;3.80;;
7753;SDS011;3921;42.266;23.122;2023-04-15T07:07:39;7.70;;;4.13;;
7753;SDS011;3921;42.266;23.122;2023-04-15T07:10:08;6.70;;;4.30;;
7753;SDS011;3921;42.266;23.122;2023-04-15T07:12:36;6.13;;;4.33;;
7753;SDS011;3921;42.266;23.122;2023-04-15T07:15:06;11.03;;;6.33;;
7753;SDS011;3921;42.266;23.122;2023-04-15T07:17:33;8.33;;;5.37;;
7753;SDS011;3921;42.266;23.122;2023-04-15T07:20:01;10.43;;;5.97;;
7753;SDS011;3921;42.266;23.122;2023-04-15T07:22:31;8.87;;;5.20;;
7753;SDS011;3921;42.266;23.122;2023-04-15T07:24:58;5.37;;;4.60;;
7753;SDS011;3921;42.266;23.122;2023-04-15T07:27:27;9.60;;;5.43;;
7753;SDS011;3921;42.266;23.122;2023-04-15T07:29:58;7.07;;;4.07;;
7753;SDS011;3921;42.266;23.122;2023-04-15T07:32:25;5.97;;;4.17;;
7753;SDS011;3921;42.266;23.122;2023-04-15T07:34:52;6.50;;;3.77;;
7753;SDS011;3921;42.266;23.122;2023-04-15T07:37:20;8.17;;;3.63;;
7753;SDS011;3921;42.266;23.122;2023-04-15T07:39:48;7.00;;;3.70;;
7753;SDS011;3921;42.266;23.122;2023-04-15T07:42:15;5.63;;;3.40;;
7753;SDS011;3921;42.266;23.122;2023-04-15T07:44:46;6.20;;;2.87;;
7753;SDS011;3921;42.266;23.122;2023-04-15T07:47:15;5.23;;;2.63;;
7753;SDS011;3921;42.266;23.122;2023-04-15T07:49:42;6.63;;;2.53;;
7753;SDS011;3921;42.266;23.122;2023-04-15T07:52:13;4.87;;;2.23;;
7753;SDS011;3921;42.266;23.122;2023-04-15T07:54:40;5.20;;;2.10;;
7753;SDS011;3921;42.266;23.122;2023-04-15T07:57:08;4.13;;;2.40;;
7753;SDS011;3921;42.266;23.122;2023-04-15T07:59:35;4.63;;;1.93;;
7753;SDS011;3921;42.266;23.122;2023-04-15T08:02:04;3.10;;;1.93;;
7753;SDS011;3921;42.266;23.122;2023-04-15T08:04:32;2.53;;;1.57;;
7753;SDS011;3921;42.266;23.122;2023-04-15T08:06:59;3.17;;;2.20;;
7753;SDS011;3921;42.266;23.122;2023-04-15T08:09:27;2.57;;;1.43;;
7753;SDS011;3921;42.266;23.122;2023-04-15T08:11:54;3.40;;;1.47;;
7753;SDS011;3921;42.266;23.122;2023-04-15T08:14:23;2.73;;;1.60;;
7753;SDS011;3921;42.266;23.122;2023-04-15T08:16:50;4.63;;;2.23;;
7753;SDS011;3921;42.266;23.122;2023-04-15T08:19:19;3.80;;;1.50;;
7753;SDS011;3921;42.266;23.122;2023-04-15T08:21:47;3.47;;;1.77;;
7753;SDS011;3921;42.266;23.122;2023-04-15T08:24:14;5.20;;;1.97;;
7753;SDS011;3921;42.266;23.122;2023-04-15T08:26:42;2.30;;;1.30;;
7753;SDS011;3921;42.266;23.122;2023-04-15T08:29:11;2.87;;;1.83;;
7753;SDS011;3921;42.266;23.122;2023-04-15T08:31:38;3.10;;;1.63;;
7753;SDS011;3921;42.266;23.122;2023-04-15T08:34:05;2.87;;;1.80;;
7753;SDS011;3921;42.266;23.122;2023-04-15T08:36:34;2.53;;;1.57;;
7753;SDS011;3921;42.266;23.122;2023-04-15T08:39:01;2.90;;;1.70;;
7753;SDS011;3921;42.266;23.122;2023-04-15T08:41:30;3.57;;;2.13;;
7753;SDS011;3921;42.266;23.122;2023-04-15T08:44:05;2.97;;;1.70;;
7753;SDS011;3921;42.266;23.122;2023-04-15T08:46:33;3.77;;;1.30;;
7753;SDS011;3921;42.266;23.122;2023-04-15T08:49:02;2.63;;;1.20;;
7753;SDS011;3921;42.266;23.122;2023-04-15T08:51:31;2.60;;;1.30;;
7753;SDS011;3921;42.266;23.122;2023-04-15T08:54:00;3.87;;;1.50;;
7753;SDS011;3921;42.266;23.122;2023-04-15T08:56:28;3.10;;;1.10;;
7753;SDS011;3921;42.266;23.122;2023-04-15T08:58:58;3.93;;;1.80;;
7753;SDS011;3921;42.266;23.122;2023-04-15T09:01:25;3.33;;;1.60;;
7753;SDS011;3921;42.266;23.122;2023-04-15T09:03:53;1.63;;;1.33;;
7753;SDS011;3921;42.266;23.122;2023-04-15T09:06:22;3.97;;;1.20;;
7753;SDS011;3921;42.266;23.122;2023-04-15T09:08:49;3.30;;;1.80;;
7753;SDS011;3921;42.266;23.122;2023-04-15T09:11:19;3.83;;;1.67;;
7753;SDS011;3921;42.266;23.122;2023-04-15T09:13:47;2.33;;;1.23;;
7753;SDS011;3921;42.266;23.122;2023-04-15T09:16:15;3.27;;;1.20;;
7753;SDS011;3921;42.266;23.122;2023-04-15T09:18:42;1.87;;;1.20;;
7753;SDS011;3921;42.266;23.122;2023-04-15T09:21:11;2.33;;;1.20;;
7753;SDS011;3921;42.266;23.122;2023-04-15T09:23:40;2.03;;;1.53;;
7753;SDS011;3921;42.266;23.122;2023-04-15T09:26:28;4.37;;;1.77;;
7753;SDS011;3921;42.266;23.122;2023-04-15T09:29:01;2.63;;;1.50;;
7753;SDS011;3921;42.266;23.122;2023-04-15T09:31:30;2.03;;;1.10;;
7753;SDS011;3921;42.266;23.122;2023-04-15T09:33:58;6.53;;;1.83;;
7753;SDS011;3921;42.266;23.122;2023-04-15T09:36:25;2.93;;;1.10;;
7753;SDS011;3921;42.266;23.122;2023-04-15T09:38:54;3.37;;;1.20;;
7753;SDS011;3921;42.266;23.122;2023-04-15T09:41:24;3.50;;;1.40;;
7753;SDS011;3921;42.266;23.122;2023-04-15T09:43:52;3.83;;;1.33;;
7753;SDS011;3921;42.266;23.122;2023-04-15T09:46:20;2.73;;;1.90;;
7753;SDS011;3921;42.266;23.122;2023-04-15T09:49:07;2.43;;;1.27;;
7753;SDS011;3921;42.266;23.122;2023-04-15T09:51:35;3.20;;;1.70;;
7753;SDS011;3921;42.266;23.122;2023-04-15T09:54:02;4.90;;;1.60;;
7753;SDS011;3921;42.266;23.122;2023-04-15T09:56:33;1.33;;;1.10;;
7753;SDS011;3921;42.266;23.122;2023-04-15T09:59:02;4.27;;;1.87;;
7753;SDS011;3921;42.266;23.122;2023-04-15T10:01:31;4.50;;;1.70;;
7753;SDS011;3921;42.266;23.122;2023-04-15T10:03:58;2.77;;;1.50;;
7753;SDS011;3921;42.266;23.122;2023-04-15T10:06:29;2.30;;;1.40;;
7753;SDS011;3921;42.266;23.122;2023-04-15T10:08:57;4.77;;;1.60;;
7753;SDS011;3921;42.266;23.122;2023-04-15T10:11:25;2.47;;;1.30;;
7753;SDS011;3921;42.266;23.122;2023-04-15T10:13:56;2.53;;;1.23;;
7753;SDS011;3921;42.266;23.122;2023-04-15T10:16:25;3.97;;;1.97;;
7753;SDS011;3921;42.266;23.122;2023-04-15T10:18:54;3.10;;;1.40;;
7753;SDS011;3921;42.266;23.122;2023-04-15T10:21:23;1.77;;;1.20;;
7753;SDS011;3921;42.266;23.122;2023-04-15T10:23:50;3.83;;;1.70;;
7753;SDS011;3921;42.266;23.122;2023-04-15T10:26:18;2.30;;;1.10;;
7753;SDS011;3921;42.266;23.122;2023-04-15T10:28:46;2.53;;;1.10;;
7753;SDS011;3921;42.266;23.122;2023-04-15T10:31:15;2.13;;;1.30;;
7753;SDS011;3921;42.266;23.122;2023-04-15T10:33:46;2.37;;;1.10;;
7753;SDS011;3921;42.266;23.122;2023-04-15T10:36:15;2.37;;;1.40;;
7753;SDS011;3921;42.266;23.122;2023-04-15T10:38:44;5.10;;;1.60;;
7753;SDS011;3921;42.266;23.122;2023-04-15T10:41:13;2.93;;;1.60;;
7753;SDS011;3921;42.266;23.122;2023-04-15T10:43:45;3.27;;;1.30;;
7753;SDS011;3921;42.266;23.122;2023-04-15T10:46:22;3.57;;;1.20;;
7753;SDS011;3921;42.266;23.122;2023-04-15T10:49:05;1.90;;;1.10;;
7753;SDS011;3921;42.266;23.122;2023-04-15T10:51:34;2.30;;;1.47;;
7753;SDS011;3921;42.266;23.122;2023-04-15T10:54:07;2.40;;;1.30;;
7753;SDS011;3921;42.266;23.122;2023-04-15T10:56:35;1.57;;;1.10;;
7753;SDS011;3921;42.266;23.122;2023-04-15T10:59:16;3.20;;;1.30;;
7753;SDS011;3921;42.266;23.122;2023-04-15T11:01:51;4.13;;;1.37;;
7753;SDS011;3921;42.266;23.122;2023-04-15T11:07:38;2.13;;;1.00;;
7753;SDS011;3921;42.266;23.122;2023-04-15T11:13:18;3.17;;;0.80;;
7753;SDS011;3921;42.266;23.122;2023-04-15T11:15:53;1.50;;;1.40;;
7753;SDS011;3921;42.266;23.122;2023-04-15T11:18:27;3.53;;;1.40;;
7753;SDS011;3921;42.266;23.122;2023-04-15T11:20:57;1.33;;;0.80;;
7753;SDS011;3921;42.266;23.122;2023-04-15T11:23:27;1.50;;;1.10;;
7753;SDS011;3921;42.266;23.122;2023-04-15T11:25:56;1.73;;;1.20;;
7753;SDS011;3921;42.266;23.122;2023-04-15T11:28:25;3.70;;;0.90;;
7753;SDS011;3921;42.266;23.122;2023-04-15T11:30:53;2.57;;;1.10;;
7753;SDS011;3921;42.266;23.122;2023-04-15T11:33:21;3.83;;;1.47;;
7753;SDS011;3921;42.266;23.122;2023-04-15T11:35:50;1.90;;;0.80;;
7753;SDS011;3921;42.266;23.122;2023-04-15T11:38:19;1.23;;;0.80;;
7753;SDS011;3921;42.266;23.122;2023-04-15T11:40:47;2.37;;;1.00;;
7753;SDS011;3921;42.266;23.122;2023-04-15T11:43:16;1.60;;;1.20;;
7753;SDS011;3921;42.266;23.122;2023-04-15T11:45:52;1.73;;;1.20;;
7753;SDS011;3921;42.266;23.122;2023-04-15T11:48:21;3.30;;;1.23;;
7753;SDS011;3921;42.266;23.122;2023-04-15T11:50:55;2.93;;;0.97;;
7753;SDS011;3921;42.266;23.122;2023-04-15T11:53:37;1.57;;;1.00;;
7753;SDS011;3921;42.266;23.122;2023-04-15T11:56:07;2.00;;;0.87;;
7753;SDS011;3921;42.266;23.122;2023-04-15T11:58:36;1.90;;;0.90;;
7753;SDS011;3921;42.266;23.122;2023-04-15T12:01:04;1.37;;;0.80;;
7753;SDS011;3921;42.266;23.122;2023-04-15T12:03:35;1.60;;;0.97;;
7753;SDS011;3921;42.266;23.122;2023-04-15T12:06:06;1.43;;;0.90;;
7753;SDS011;3921;42.266;23.122;2023-04-15T12:11:40;1.43;;;1.00;;
7753;SDS011;3921;42.266;23.122;2023-04-15T12:14:09;2.03;;;1.13;;
7753;SDS011;3921;42.266;23.122;2023-04-15T12:16:39;2.80;;;1.13;;
7753;SDS011;3921;42.266;23.122;2023-04-15T12:19:09;1.50;;;1.27;;
7753;SDS011;3921;42.266;23.122;2023-04-15T12:21:39;2.87;;;1.40;;
7753;SDS011;3921;42.266;23.122;2023-04-15T12:24:08;1.90;;;1.37;;
7753;SDS011;3921;42.266;23.122;2023-04-15T12:26:37;1.97;;;1.20;;
7753;SDS011;3921;42.266;23.122;2023-04-15T12:29:10;2.00;;;1.30;;
7753;SDS011;3921;42.266;23.122;2023-04-15T12:31:45;4.13;;;1.87;;
7753;SDS011;3921;42.266;23.122;2023-04-15T12:34:16;2.87;;;1.30;;
7753;SDS011;3921;42.266;23.122;2023-04-15T12:36:46;1.47;;;1.00;;
7753;SDS011;3921;42.266;23.122;2023-04-15T12:39:13;2.33;;;1.47;;
7753;SDS011;3921;42.266;23.122;2023-04-15T12:41:41;1.83;;;0.90;;
7753;SDS011;3921;42.266;23.122;2023-04-15T12:44:09;1.50;;;0.80;;
7753;SDS011;3921;42.266;23.122;2023-04-15T12:46:36;1.07;;;0.93;;
7753;SDS011;3921;42.266;23.122;2023-04-15T12:49:03;2.07;;;1.20;;
7753;SDS011;3921;42.266;23.122;2023-04-15T12:51:31;2.20;;;1.13;;
7753;SDS011;3921;42.266;23.122;2023-04-15T12:53:59;2.93;;;1.20;;
7753;SDS011;3921;42.266;23.122;2023-04-15T12:56:27;2.70;;;1.63;;
7753;SDS011;3921;42.266;23.122;2023-04-15T12:58:54;2.57;;;1.20;;
7753;SDS011;3921;42.266;23.122;2023-04-15T13:01:21;1.90;;;1.20;;
7753;SDS011;3921;42.266;23.122;2023-04-15T13:03:49;2.60;;;1.07;;
7753;SDS011;3921;42.266;23.122;2023-04-15T13:06:16;2.20;;;1.20;;
7753;SDS011;3921;42.266;23.122;2023-04-15T13:08:43;2.50;;;1.07;;
7753;SDS011;3921;42.266;23.122;2023-04-15T13:11:12;3.17;;;1.40;;
7753;SDS011;3921;42.266;23.122;2023-04-15T13:13:39;1.83;;;1.10;;
7753;SDS011;3921;42.266;23.122;2023-04-15T13:16:06;2.63;;;1.00;;
7753;SDS011;3921;42.266;23.122;2023-04-15T13:18:34;2.90;;;1.00;;
7753;SDS011;3921;42.266;23.122;2023-04-15T13:21:01;2.30;;;1.07;;
7753;SDS011;3921;42.266;23.122;2023-04-15T13:23:28;1.40;;;1.00;;
7753;SDS011;3921;42.266;23.122;2023-04-15T13:25:56;2.43;;;1.50;;
7753;SDS011;3921;42.266;23.122;2023-04-15T13:28:25;1.80;;;1.30;;
7753;SDS011;3921;42.266;23.122;2023-04-15T13:30:52;1.60;;;1.10;;
7753;SDS011;3921;42.266;23.122;2023-04-15T13:33:19;2.37;;;1.40;;
7753;SDS011;3921;42.266;23.122;2023-04-15T13:35:46;2.33;;;1.53;;
7753;SDS011;3921;42.266;23.122;2023-04-15T13:38:13;2.60;;;1.27;;
7753;SDS011;3921;42.266;23.122;2023-04-15T13:40:41;2.90;;;1.53;;
7753;SDS011;3921;42.266;23.122;2023-04-15T13:43:08;3.23;;;1.70;;
7753;SDS011;3921;42.266;23.122;2023-04-15T13:45:37;1.30;;;1.20;;
7753;SDS011;3921;42.266;23.122;2023-04-15T13:48:04;2.97;;;1.03;;
7753;SDS011;3921;42.266;23.122;2023-04-15T13:50:32;2.50;;;1.57;;
7753;SDS011;3921;42.266;23.122;2023-04-15T13:52:59;2.60;;;1.60;;
7753;SDS011;3921;42.266;23.122;2023-04-15T13:55:26;3.33;;;1.70;;
7753;SDS011;3921;42.266;23.122;2023-04-15T13:57:55;1.93;;;1.40;;
7753;SDS011;3921;42.266;23.122;2023-04-15T14:00:22;2.53;;;1.50;;
7753;SDS011;3921;42.266;23.122;2023-04-15T14:02:50;4.03;;;1.80;;
7753;SDS011;3921;42.266;23.122;2023-04-15T14:05:18;1.70;;;1.37;;
7753;SDS011;3921;42.266;23.122;2023-04-15T14:07:45;3.07;;;1.73;;
7753;SDS011;3921;42.266;23.122;2023-04-15T14:10:13;2.23;;;1.57;;
7753;SDS011;3921;42.266;23.122;2023-04-15T14:12:40;5.00;;;2.23;;
7753;SDS011;3921;42.266;23.122;2023-04-15T14:15:07;3.30;;;1.90;;
7753;SDS011;3921;42.266;23.122;2023-04-15T14:17:35;2.43;;;1.80;;
7753;SDS011;3921;42.266;23.122;2023-04-15T14:20:05;4.23;;;1.83;;
7753;SDS011;3921;42.266;23.122;2023-04-15T14:22:33;4.13;;;1.70;;
7753;SDS011;3921;42.266;23.122;2023-04-15T14:25:00;2.97;;;1.80;;
7753;SDS011;3921;42.266;23.122;2023-04-15T14:27:28;3.27;;;1.90;;
7753;SDS011;3921;42.266;23.122;2023-04-15T14:29:55;3.43;;;1.90;;
7753;SDS011;3921;42.266;23.122;2023-04-15T14:32:23;2.10;;;1.80;;
7753;SDS011;3921;42.266;23.122;2023-04-15T14:34:51;5.37;;;2.43;;
7753;SDS011;3921;42.266;23.122;2023-04-15T14:37:19;1.53;;;1.30;;
7753;SDS011;3921;42.266;23.122;2023-04-15T14:39:46;1.73;;;1.57;;
7753;SDS011;3921;42.266;23.122;2023-04-15T14:42:13;2.97;;;1.50;;
7753;SDS011;3921;42.266;23.122;2023-04-15T14:44:41;1.50;;;1.30;;
7753;SDS011;3921;42.266;23.122;2023-04-15T14:47:09;1.70;;;1.10;;
7753;SDS011;3921;42.266;23.122;2023-04-15T14:49:36;2.03;;;1.40;;
7753;SDS011;3921;42.266;23.122;2023-04-15T14:52:03;1.90;;;1.30;;
7753;SDS011;3921;42.266;23.122;2023-04-15T14:54:32;1.80;;;1.20;;
7753;SDS011;3921;42.266;23.122;2023-04-15T14:56:59;2.27;;;1.40;;
7753;SDS011;3921;42.266;23.122;2023-04-15T14:59:27;2.67;;;1.40;;
7753;SDS011;3921;42.266;23.122;2023-04-15T15:01:54;3.57;;;1.83;;
7753;SDS011;3921;42.266;23.122;2023-04-15T15:04:21;1.40;;;1.27;;
7753;SDS011;3921;42.266;23.122;2023-04-15T15:06:49;2.60;;;1.30;;
7753;SDS011;3921;42.266;23.122;2023-04-15T15:09:16;2.03;;;1.53;;
7753;SDS011;3921;42.266;23.122;2023-04-15T15:11:45;2.03;;;1.50;;
7753;SDS011;3921;42.266;23.122;2023-04-15T15:14:12;1.53;;;1.27;;